createdAt,value
2022-09-14T00:01:25.167Z,100000.44
2022-09-14T00:04:46.011Z,100011.00
2022-09-14T00:07:58.869Z,100002.31
2022-09-14T00:11:16.011Z,100010.56
2022-09-14T00:14:45.145Z,100011.00
2022-09-14T00:17:57.657Z,99939.13
2022-09-14T00:21:14.420Z,100009.34
2022-09-14T00:24:31.267Z,99960.72
2022-09-14T00:28:00.108Z,100002.97
2022-09-14T00:31:24.201Z,100001.56
2022-09-14T00:34:33.327Z,99992.13
2022-09-14T00:37:52.169Z,99911.75
2022-09-14T00:44:56.805Z,99942.22
2022-09-14T00:47:58.482Z,99925.44
2022-09-14T00:51:00.194Z,99990.06
2022-09-14T00:54:16.393Z,99984.38
2022-09-14T00:57:49.384Z,99917.00
2022-09-14T01:00:55.508Z,99991.38
2022-09-14T01:03:59.904Z,99938.66
2022-09-14T01:07:55.856Z,99983.47
2022-09-14T01:11:18.989Z,99986.56
2022-09-14T01:14:56.975Z,99978.16
2022-09-14T01:18:21.131Z,99902.37
2022-09-14T01:21:46.263Z,99985.75
2022-09-14T01:25:08.280Z,99975.19
2022-09-14T01:28:30.927Z,99970.09
2022-09-14T01:31:53.821Z,99972.00
2022-09-14T01:35:05.071Z,99969.16
2022-09-14T01:38:39.351Z,99893.13
2022-09-14T01:45:12.833Z,99965.41
2022-09-14T01:48:27.668Z,99954.16
2022-09-14T01:51:41.807Z,99953.53
2022-09-14T01:55:03.040Z,99905.59
2022-09-14T01:58:22.544Z,99943.47
2022-09-14T02:01:39.586Z,99939.37
2022-09-14T02:04:57.251Z,99863.31
2022-09-14T02:08:12.210Z,99928.94
2022-09-14T02:11:27.160Z,99913.34
2022-09-14T02:14:32.883Z,99844.28
2022-09-14T02:17:43.997Z,99927.38
2022-09-14T02:21:03.990Z,99913.34
2022-09-14T02:24:09.559Z,99899.25
2022-09-14T02:27:51.498Z,99913.12
2022-09-14T02:31:39.289Z,99844.84
2022-09-14T02:35:08.087Z,99918.63
2022-09-14T02:39:04.041Z,99890.47
2022-09-14T02:42:21.133Z,99905.47
2022-09-14T02:50:02.307Z,99900.25
2022-09-14T03:00:53.064Z,99903.13
2022-09-14T03:04:03.498Z,99896.41
2022-09-14T03:07:47.211Z,99875.00
2022-09-14T03:11:03.059Z,99830.97
2022-09-14T03:14:16.437Z,99887.69
2022-09-14T03:17:48.506Z,99866.09
2022-09-14T03:21:09.937Z,99828.94
2022-09-14T03:24:22.784Z,99868.38
2022-09-14T03:27:57.514Z,99863.25
2022-09-14T03:31:23.535Z,99846.41
2022-09-14T03:34:29.616Z,99876.66
2022-09-14T03:37:53.125Z,99880.75
2022-09-14T03:41:05.175Z,99793.78
2022-09-14T03:44:15.078Z,99858.38
2022-09-14T03:47:46.475Z,99866.81
2022-09-14T03:50:58.076Z,99869.84
2022-09-14T03:53:59.767Z,99879.97
2022-09-14T03:57:44.018Z,99872.97
2022-09-14T04:00:57.892Z,99878.41
2022-09-14T04:04:19.472Z,99880.13
2022-09-14T04:07:54.309Z,99873.03
2022-09-14T04:11:29.333Z,99879.44
2022-09-14T04:14:33.745Z,99813.56
2022-09-14T04:17:44.401Z,99876.34
2022-09-14T04:20:55.013Z,99869.50
2022-09-14T04:24:31.049Z,99828.97
2022-09-14T04:27:46.072Z,99848.84
2022-09-14T04:31:01.355Z,99843.50
2022-09-14T04:34:14.456Z,99838.12
2022-09-14T04:37:40.963Z,99840.97
2022-09-14T04:40:46.597Z,99828.81
2022-09-14T04:43:58.945Z,99836.66
2022-09-14T04:47:49.078Z,99839.16
2022-09-14T04:50:54.158Z,99845.12
2022-09-14T04:54:02.636Z,99840.47
2022-09-14T05:01:29.301Z,99837.94
2022-09-14T05:04:31.285Z,99817.69
2022-09-14T05:07:43.552Z,99824.44
2022-09-14T05:10:45.237Z,99836.44
2022-09-14T05:17:47.860Z,99824.47
2022-09-14T05:24:43.945Z,99852.00
2022-09-14T05:27:50.905Z,99848.72
2022-09-14T05:31:17.770Z,99857.63
2022-09-14T07:08:51.681Z,99857.13
2022-09-14T08:21:09.607Z,99786.81
2022-09-14T08:25:20.593Z,99747.50
2022-09-14T08:29:14.898Z,99808.31
2022-09-14T08:32:26.446Z,99788.91
2022-09-14T12:13:38.930Z,99744.69
2022-09-14T12:17:42.860Z,99738.16
2022-09-14T12:25:28.922Z,99734.47
2022-09-14T12:29:11.548Z,99720.84
2022-09-14T12:32:56.793Z,99597.75
2022-09-14T13:06:21.521Z,99673.47
2022-09-14T13:13:32.792Z,99560.91
2022-09-14T15:43:37.885Z,99543.84
2022-09-14T15:51:59.363Z,99523.75
2022-09-14T15:59:40.303Z,99413.63
2022-09-14T20:13:15.413Z,99449.81
